EW4607 Soria ES current weather conditions

sailwx.info

Wind from 099 at 1 knots gusting 5

Air temperature 5.6° C
Dewpoint 3.1° C

Last reported at 2020-Jan-22 13:00 UTC.
Time now 2020-Jan-22 13:51 UTC

Location: N 41°46' W 002°28'.
View on Google Maps.

See reports from other nearby stations

  
Tides and Currents Weather Stations Pressure Air Temp Water Temp Dewpoint Dewpoint Depression Visibility Wind Speed Wind Dir Waves Ship Positions
date/time (UTC)wind fromknots sea level pressurealtimeterstation pressurevisibilityair tempwater tempwave heightnotes
2020-Jan-22 13:00 099 1 gusting 5 5.6
2020-Jan-22 12:45 117 1 gusting 5 5.0
2020-Jan-22 12:30 075 1 gusting 6 5.0
2020-Jan-22 12:15 108 3 gusting 6 4.4
2020-Jan-22 12:00 082 2 gusting 6 4.4
2020-Jan-22 11:45 090 2 gusting 4 4.4
2020-Jan-22 11:30 059 2 gusting 6 4.4
2020-Jan-22 11:15 139 0 gusting 5 4.4
2020-Jan-22 11:02 114 4.4
2020-Jan-22 11:00 123 4.4
2020-Jan-22 10:47 131 3.9
2020-Jan-22 10:31 045 0 gusting 2 3.9
2020-Jan-22 10:17 067 0 gusting 2 3.3
2020-Jan-22 10:02 332 3.3
2020-Jan-22 09:47 068 0 gusting 3 2.8
2020-Jan-22 09:33 108 1 gusting 4 3.3
2020-Jan-22 09:17 164 0 gusting 4 2.8
2020-Jan-22 09:01 054 1 gusting 5 2.2
2020-Jan-22 08:46 343 2.2
2020-Jan-22 08:32 343 1.1
2020-Jan-22 08:16 347 1.1
2020-Jan-22 08:01 034 1.1
2020-Jan-22 07:46 027 0 gusting 1 1.1
2020-Jan-22 07:31 353 1.1
2020-Jan-22 07:15 328 1 gusting 3 0.6
2020-Jan-22 07:01 337 2 gusting 3 0.6
2020-Jan-22 06:46 036 0 gusting 4 0.6
2020-Jan-22 06:30 007 1 gusting 3 0.6
2020-Jan-22 06:16 037 0.6
2020-Jan-22 06:01 347 0 gusting 2 0.6
2020-Jan-22 05:45 044 0 gusting 4 0.6
2020-Jan-22 05:30 050 2 gusting 5 0.6
2020-Jan-22 05:16 042 3 gusting 5 1.1
2020-Jan-22 05:00 049 4 gusting 8 1.1
2020-Jan-22 04:45 041 4 gusting 7 0.6
2020-Jan-22 04:31 068 4 gusting 10 0.6
2020-Jan-22 04:15 037 6 gusting 11 0.6
2020-Jan-22 04:00 022 7 gusting 11 0.6
2020-Jan-22 03:45 035 8 gusting 14 0.6
2020-Jan-22 03:30 039 9 gusting 13 0.6
2020-Jan-22 03:15 053 8 gusting 13 0.6
2020-Jan-22 03:00 060 10 gusting 14 0.6
2020-Jan-22 02:45 037 10 gusting 14 1.1
2020-Jan-22 02:30 045 6 gusting 13 0.6
2020-Jan-22 02:15 042 5 gusting 15 1.1
2020-Jan-22 02:00 025 7 gusting 12 0.6
2020-Jan-22 01:45 029 9 gusting 14 0.6
2020-Jan-22 01:30 051 9 gusting 15 1.1
2020-Jan-22 01:15 051 13 gusting 19 1.1
2020-Jan-22 01:00 020 9 gusting 15 1.1
2020-Jan-22 00:45 036 10 gusting 17 1.1
2020-Jan-22 00:30 045 10 gusting 17 1.7
2020-Jan-22 00:17 036 8 gusting 14 2.2
2020-Jan-22 00:02 060 4 gusting 9 2.2
2020-Jan-21 23:32 041 3 gusting 7 2.8
2020-Jan-21 23:16 359 5 gusting 9 2.8
2020-Jan-21 23:02 044 5 gusting 10 2.8
2020-Jan-21 22:46 068 8 gusting 14 2.2
2020-Jan-21 22:31 036 9 gusting 14 2.2
2020-Jan-21 22:17 030 11 gusting 19 2.2
2020-Jan-21 22:02 023 10 gusting 21 2.2
2020-Jan-21 21:47 027 11 gusting 17 2.2
2020-Jan-21 21:32 041 10 gusting 14 2.2
2020-Jan-21 21:17 001 11 gusting 18 2.8
2020-Jan-21 21:04 036 10 gusting 15 2.8
2020-Jan-21 20:46 031 7 gusting 14 2.2
2020-Jan-21 20:31 032 10 gusting 14 2.2
2020-Jan-21 20:16 048 8 gusting 13 2.8
2020-Jan-21 20:01 046 9 gusting 19 2.8
2020-Jan-21 19:46 038 8 gusting 17 2.8
2020-Jan-21 19:30 027 13 gusting 17 3.3
2020-Jan-21 19:16 030 10 gusting 19 2.8
2020-Jan-21 19:01 015 9 gusting 18 2.8
2020-Jan-21 18:46 007 13 gusting 18 2.8
2020-Jan-21 18:31 041 13 gusting 19 2.8
2020-Jan-21 18:15 034 13 gusting 19 2.8
2020-Jan-21 18:01 018 10 gusting 16 2.8
2020-Jan-21 17:46 075 8 gusting 13 2.8
2020-Jan-21 17:31 017 8 gusting 14 2.8
2020-Jan-21 17:15 013 12 gusting 19 2.8
2020-Jan-21 17:01 349 13 gusting 19 2.8
2020-Jan-21 16:46 024 13 gusting 18 2.8
2020-Jan-21 16:31 013 13 gusting 22 2.8
2020-Jan-21 16:16 354 13 gusting 22 2.8
2020-Jan-21 16:01 023 13 gusting 20 2.2
2020-Jan-21 15:45 022 14 gusting 22 2.2
2020-Jan-21 15:31 351 15 gusting 26 2.2
2020-Jan-21 15:15 357 14 gusting 24 2.2
2020-Jan-21 15:01 014 12 gusting 21 2.2
2020-Jan-21 14:46 038 11 gusting 19 2.2
2020-Jan-21 14:30 002 14 gusting 19 2.2
2020-Jan-21 14:16 030 12 gusting 19 1.7
2020-Jan-21 14:00 338 12 gusting 18 1.7
2020-Jan-21 13:45 042 12 gusting 19 1.7
2020-Jan-21 13:30 038 6 gusting 20 1.7
2020-Jan-21 13:15 023 13 gusting 18 1.7
2020-Jan-21 13:00 027 11 gusting 17 1.7
2020-Jan-21 12:46 033 10 gusting 19 1.7
2020-Jan-21 12:30 046 13 gusting 21 2.2
2020-Jan-21 12:15 049 15 gusting 22 2.2
2020-Jan-21 12:00 011 13 gusting 19 2.2
2020-Jan-21 11:45 009 14 gusting 22 2.2
2020-Jan-21 11:33 018 12 gusting 21 2.2
2020-Jan-21 11:17 033 14 gusting 22 2.2
2020-Jan-21 11:03 025 18 gusting 23 2.2
2020-Jan-21 10:47 047 13 gusting 19 2.2
2020-Jan-21 10:32 018 13 gusting 20 2.8
2020-Jan-21 10:16 080 7 gusting 18 2.2
2020-Jan-21 10:01 051 11 gusting 18 2.2
2020-Jan-21 09:47 032 13 gusting 20 1.7
2020-Jan-21 09:32 043 12 gusting 19 1.7
2020-Jan-21 09:17 030 12 gusting 17 1.1
2020-Jan-21 09:01 027 12 gusting 20 1.7
2020-Jan-21 08:46 004 16 gusting 24 1.1
2020-Jan-21 08:33 046 10 gusting 17 1.1
2020-Jan-21 08:16 053 11 gusting 15 0.6
2020-Jan-21 08:03 037 12 gusting 17 -0.0
2020-Jan-21 07:46 049 8 gusting 13 -0.0
2020-Jan-21 07:31 044 11 gusting 16 -0.0
2020-Jan-21 07:15 008 9 gusting 16 -0.0
2020-Jan-21 07:02 048 6 gusting 13 -0.0
2020-Jan-21 06:46 049 12 gusting 17 0.6
2020-Jan-21 06:31 055 10 gusting 19 1.1
2020-Jan-21 06:16 103 2 gusting 12 1.1
2020-Jan-21 06:01 042 7 gusting 14 1.1
2020-Jan-21 05:45 017 2 gusting 6 1.1
2020-Jan-21 05:30 343 6 gusting 14 1.1
2020-Jan-21 05:15 356 11 gusting 21 1.1
2020-Jan-21 05:00 025 13 gusting 19 1.1
2020-Jan-21 04:45 034 12 gusting 21 1.1
2020-Jan-21 04:31 026 13 gusting 19 1.1
2020-Jan-21 04:15 032 3 gusting 9 1.1
2020-Jan-21 04:00 345 6 gusting 15 1.1
2020-Jan-21 03:45 025 7 gusting 13 1.1
2020-Jan-21 03:30 327 9 gusting 14 1.1
2020-Jan-21 03:15 014 5 gusting 11 0.6
2020-Jan-21 03:03 039 7 gusting 15 0.6
2020-Jan-21 02:47 049 8 gusting 13 -0.0
2020-Jan-21 02:31 032 11 gusting 16 -0.0
2020-Jan-21 02:18 024 9 gusting 16 -0.0
2020-Jan-21 02:02 054 12 gusting 19 -0.0
2020-Jan-21 01:46 023 11 gusting 19 -0.0
2020-Jan-21 01:31 056 13 gusting 20 -0.0
2020-Jan-21 01:17 039 16 gusting 22 0.6
2020-Jan-21 01:02 041 12 gusting 16 -0.6
2020-Jan-21 00:46 029 7 gusting 15 -0.0
2020-Jan-21 00:31 042 13 gusting 17 -0.6
2020-Jan-21 00:16 057 6 gusting 10 -0.6
2020-Jan-21 00:02 027 4 gusting 7 -1.1
2020-Jan-20 23:47 053 4 gusting 7 -0.6
2020-Jan-20 23:31 053 6 gusting 13 -0.6
2020-Jan-20 23:17 011 7 gusting 12 -1.1
2020-Jan-20 23:02 005 6 gusting 13 -1.1
2020-Jan-20 22:46 035 10 gusting 13 -1.1
2020-Jan-20 22:30 079 6 gusting 13 -1.1
2020-Jan-20 22:15 063 8 gusting 14 -0.6
2020-Jan-20 22:01 062 2 gusting 5 -0.6
2020-Jan-20 21:45 227 0 gusting 3 -0.6
2020-Jan-20 21:30 047 2 gusting 6 -0.6
2020-Jan-20 21:15 039 6 gusting 10 -0.0
2020-Jan-20 21:01 037 6 gusting 12 -0.0
2020-Jan-20 20:45 033 6 gusting 12 -0.0
2020-Jan-20 20:30 014 6 gusting 8 -0.0
2020-Jan-20 20:15 013 3 gusting 9 -0.6
2020-Jan-20 20:00 349 5 gusting 8 -0.6
2020-Jan-20 19:45 001 7 gusting 14 -1.1
2020-Jan-20 19:30 053 12 gusting 18 -1.1
2020-Jan-20 19:15 022 11 gusting 17 -0.6
2020-Jan-20 19:01 037 10 gusting 14 -0.6
2020-Jan-20 18:45 011 9 gusting 13 -0.6
2020-Jan-20 18:30 006 6 gusting 13 -0.6
2020-Jan-20 18:15 016 9 gusting 13 -0.6
2020-Jan-20 18:00 026 6 gusting 13 -0.0
2020-Jan-20 17:45 027 9 gusting 13 -0.0
2020-Jan-20 17:31 024 10 gusting 13 -0.0
2020-Jan-20 17:15 027 9 gusting 13 -0.0
2020-Jan-20 17:00 321 9 gusting 15 -0.0
2020-Jan-20 16:45 016 9 gusting 13 0.6
2020-Jan-20 16:30 021 7 gusting 12 0.6
2020-Jan-20 16:15 046 3 gusting 11 0.6
2020-Jan-20 16:00 013 8 gusting 10 1.1
2020-Jan-20 15:45 015 8 gusting 14 1.1
2020-Jan-20 15:30 017 11 gusting 18 1.1
2020-Jan-20 15:15 025 10 gusting 19 1.1
2020-Jan-20 15:00 340 10 gusting 16 1.1
2020-Jan-20 14:45 004 10 gusting 16 1.1
2020-Jan-20 14:30 354 9 gusting 15 1.1
2020-Jan-20 14:15 005 8 gusting 15 1.1
2020-Jan-20 14:00 013 11 gusting 19 1.1
2020-Jan-20 13:45 007 7 gusting 15 0.6
2020-Jan-20 13:31 036 9 gusting 14 1.1
2020-Jan-20 13:15 320 9 gusting 17 1.7
2020-Jan-20 13:01 013 13 gusting 20 1.7